createdAt,value
2022-11-04T00:02:09.298Z,97794.81
2022-11-04T00:04:36.538Z,97786.31
2022-11-04T00:07:23.441Z,97799.91
2022-11-04T00:09:50.224Z,97806.19
2022-11-04T00:12:25.938Z,97806.19
2022-11-04T00:14:53.106Z,97797.91
2022-11-04T00:17:20.309Z,97810.78
2022-11-04T00:20:15.557Z,97808.28
2022-11-04T00:23:01.740Z,97815.63
2022-11-04T00:25:47.003Z,97830.19
2022-11-04T00:28:38.393Z,97843.78
2022-11-04T00:31:27.138Z,97839.81
2022-11-04T00:33:57.323Z,97840.47
2022-11-04T00:36:25.252Z,97847.81
2022-11-04T00:38:53.334Z,97854.84
2022-11-04T00:41:26.761Z,97857.56
2022-11-04T00:43:58.344Z,97843.38
2022-11-04T00:46:26.301Z,97852.84
2022-11-04T00:48:53.484Z,97856.06
2022-11-04T00:51:21.439Z,97849.03
2022-11-04T00:53:48.712Z,97845.56
2022-11-04T00:56:16.865Z,97855.13
2022-11-04T00:58:43.839Z,97847.34
2022-11-04T01:01:17.522Z,97849.25
2022-11-04T01:03:50.070Z,97849.25
2022-11-04T01:06:18.566Z,97857.06
2022-11-04T01:08:45.791Z,97854.81
2022-11-04T01:11:13.451Z,97858.00
2022-11-04T01:13:41.334Z,97856.41
2022-11-04T01:16:11.557Z,97851.16
2022-11-04T01:18:40.258Z,97858.19
2022-11-04T01:21:11.238Z,97847.34
2022-11-04T01:23:38.191Z,97838.25
2022-11-04T01:26:14.557Z,97848.00
2022-11-04T01:28:41.965Z,97823.56
2022-11-04T01:31:13.204Z,97834.41
2022-11-04T01:33:40.730Z,97840.97
2022-11-04T01:36:09.324Z,97850.69
2022-11-04T01:38:36.855Z,97858.50
2022-11-04T01:41:06.719Z,97857.06
2022-11-04T01:43:57.173Z,97864.41
2022-11-04T01:46:42.115Z,97855.78
2022-11-04T01:49:30.940Z,97850.38
2022-11-04T01:52:10.587Z,97846.53
2022-11-04T01:54:40.359Z,97839.50
2022-11-04T01:57:16.630Z,97830.56
2022-11-04T01:59:43.872Z,97829.94
2022-11-04T02:02:10.949Z,97821.81
2022-11-04T02:04:40.568Z,97825.66
2022-11-04T02:07:10.585Z,97816.06
2022-11-04T02:09:40.177Z,97817.50
2022-11-04T02:12:25.989Z,97800.94
2022-11-04T02:14:54.833Z,97799.47
2022-11-04T02:17:52.858Z,97805.91
2022-11-04T02:21:00.710Z,97803.38
2022-11-04T02:24:23.728Z,97790.28
2022-11-04T02:27:32.644Z,97806.09
2022-11-04T02:30:07.926Z,97808.81
2022-11-04T02:33:19.584Z,97823.03
2022-11-04T02:36:57.129Z,97828.13
2022-11-04T02:39:50.112Z,97801.31
2022-11-04T02:42:45.227Z,97788.41
2022-11-04T02:45:26.499Z,97803.56
2022-11-04T02:48:36.136Z,97815.19
2022-11-04T02:51:18.552Z,97805.34
2022-11-04T02:53:58.278Z,97796.38
2022-11-04T02:56:28.509Z,97823.69
2022-11-04T02:59:04.893Z,97818.09
2022-11-04T03:01:39.366Z,97813.00
2022-11-04T03:04:40.226Z,97813.00
2022-11-04T03:09:48.270Z,97814.78
2022-11-04T03:12:23.359Z,97817.03
2022-11-04T03:15:02.278Z,97793.91
2022-11-04T03:17:42.939Z,97821.81
2022-11-04T03:20:20.480Z,97838.56
2022-11-04T03:22:47.586Z,97838.09
2022-11-04T03:25:15.467Z,97822.16
2022-11-04T03:28:14.122Z,97819.63
2022-11-04T03:30:47.822Z,97818.03
2022-11-04T03:33:50.262Z,97828.72
2022-11-04T03:36:18.964Z,97839.75
2022-11-04T03:38:46.360Z,97855.56
2022-11-04T03:41:28.107Z,97847.72
2022-11-04T03:43:54.949Z,97848.38
2022-11-04T03:46:22.561Z,97851.59
2022-11-04T03:48:53.981Z,97862.16
2022-11-04T03:51:20.838Z,97877.94
2022-11-04T03:53:48.561Z,97867.44
2022-11-04T03:56:39.136Z,97867.09
2022-11-04T03:59:32.964Z,97862.00
2022-11-04T04:02:41.040Z,97858.31
2022-11-04T04:05:33.659Z,97850.03
2022-11-04T04:08:40.670Z,97855.94
2022-11-04T04:11:17.937Z,97852.28
2022-11-04T04:14:39.073Z,97852.13
2022-11-04T04:17:21.600Z,97850.53
2022-11-04T04:19:57.856Z,97860.75
2022-11-04T04:22:37.159Z,97848.13
2022-11-04T04:25:28.853Z,97843.66
2022-11-04T04:28:00.145Z,97847.66
2022-11-04T04:30:27.704Z,97848.94
2022-11-04T04:33:11.675Z,97843.50
2022-11-04T04:35:55.376Z,97852.09
2022-11-04T04:38:47.237Z,97857.22
2022-11-04T04:41:47.355Z,97854.34
2022-11-04T04:44:42.112Z,97844.13
2022-11-04T04:47:19.815Z,97842.56
2022-11-04T04:49:56.037Z,97844.63
2022-11-04T04:52:26.885Z,97848.78
2022-11-04T04:54:53.623Z,97843.19
2022-11-04T04:57:20.519Z,97842.91
2022-11-04T04:59:47.340Z,97845.72
2022-11-04T05:02:14.298Z,97837.94
2022-11-04T05:04:41.200Z,97838.88
2022-11-04T05:07:09.856Z,97834.09
2022-11-04T05:09:37.268Z,97814.19
2022-11-04T05:12:04.443Z,97806.72
2022-11-04T05:14:31.365Z,97800.19
2022-11-04T05:16:58.376Z,97795.06
2022-11-04T05:19:25.248Z,97789.34
2022-11-04T05:21:52.062Z,97789.19
2022-11-04T05:24:18.852Z,97782.34
2022-11-04T05:26:45.874Z,97779.63
2022-11-04T05:29:12.907Z,97781.22
2022-11-04T05:31:40.177Z,97783.44
2022-11-04T05:34:07.026Z,97784.25
2022-11-04T05:36:33.894Z,97789.34
2022-11-04T05:39:00.736Z,97787.13
2022-11-04T05:41:27.578Z,97791.41
2022-11-04T05:44:01.978Z,97801.75
2022-11-04T05:46:30.169Z,97816.56
2022-11-04T05:48:57.115Z,97824.38
2022-11-04T05:51:27.328Z,97829.63
2022-11-04T05:53:54.204Z,97825.81
2022-11-04T05:56:21.546Z,97827.72
2022-11-04T05:58:48.560Z,97839.13
2022-11-04T06:01:35.994Z,97838.13
2022-11-04T06:04:05.492Z,97841.31
2022-11-04T06:06:36.623Z,97833.72
2022-11-04T06:09:04.181Z,97827.84
2022-11-04T06:11:33.153Z,97821.31
2022-11-04T06:14:00.460Z,97826.41
2022-11-04T06:16:28.032Z,97818.78
2022-11-04T06:18:55.379Z,97818.16
2022-11-04T06:21:27.375Z,97815.94
2022-11-04T06:24:02.096Z,97819.09
2022-11-04T06:26:31.085Z,97817.81
2022-11-04T06:28:58.311Z,97824.34
2022-11-04T06:31:25.263Z,97827.53
2022-11-04T06:33:52.053Z,97817.97
2022-11-04T06:36:18.995Z,97820.38
2022-11-04T06:38:45.802Z,97824.34
2022-11-04T06:41:16.918Z,97832.94
2022-11-04T06:43:44.642Z,97847.28
2022-11-04T06:46:40.159Z,97854.91
2022-11-04T06:49:13.582Z,97861.88
2022-11-04T06:51:40.775Z,97862.00
2022-11-04T06:54:07.907Z,97858.06
2022-11-04T06:56:34.761Z,97850.91
2022-11-04T06:59:02.003Z,97855.53
2022-11-04T07:01:34.839Z,97853.16
2022-11-04T07:04:02.555Z,97852.19
2022-11-04T07:06:29.743Z,97855.72
2022-11-04T07:08:59.874Z,97862.22
2022-11-04T07:11:29.806Z,97857.13
2022-11-04T07:13:57.342Z,97862.03
2022-11-04T07:16:25.673Z,97857.94
2022-11-04T07:18:55.072Z,97864.47
2022-11-04T07:21:22.598Z,97863.34
2022-11-04T07:23:49.563Z,97854.09
2022-11-04T07:26:16.460Z,97859.53
2022-11-04T07:28:43.423Z,97851.88
2022-11-04T07:31:13.082Z,97846.00
2022-11-04T07:33:40.043Z,97846.47
2022-11-04T07:36:11.802Z,97842.03
2022-11-04T07:38:38.915Z,97840.13
2022-11-04T07:41:06.104Z,97839.16
2022-11-04T07:43:33.069Z,97834.72
2022-11-04T07:46:05.104Z,97830.56
2022-11-04T07:48:32.558Z,97837.75
2022-11-04T07:51:01.480Z,97824.84
2022-11-04T07:53:30.645Z,97820.38
2022-11-04T07:55:58.482Z,97814.69
2022-11-04T07:58:26.364Z,97811.00
2022-11-04T08:01:06.930Z,97812.75
2022-11-04T08:03:35.392Z,97807.00
2022-11-04T08:06:06.014Z,97808.44
2022-11-04T08:08:33.749Z,97811.16
2022-11-04T08:11:12.761Z,97809.88
2022-11-04T08:13:41.612Z,97803.69
2022-11-04T08:16:13.653Z,97811.66
2022-11-04T08:18:42.183Z,97809.56
2022-11-04T08:21:10.464Z,97801.91
2022-11-04T08:23:37.975Z,97800.63
2022-11-04T08:26:11.702Z,97798.25
2022-11-04T08:28:39.463Z,97798.09
2022-11-04T08:31:30.317Z,97792.34
2022-11-04T08:33:57.755Z,97788.50
2022-11-04T08:36:32.643Z,97792.31
2022-11-04T08:38:59.731Z,97785.63
2022-11-04T08:41:30.831Z,97792.97
2022-11-04T08:44:04.274Z,97802.03
2022-11-04T08:46:38.750Z,97802.66
2022-11-04T08:49:10.041Z,97804.25
2022-11-04T08:51:42.547Z,97806.00
2022-11-04T08:54:10.441Z,97803.59
2022-11-04T08:56:40.153Z,97800.56
2022-11-04T08:59:08.391Z,97810.91
2022-11-04T09:01:37.409Z,97800.34
2022-11-04T09:04:05.952Z,97801.47
2022-11-04T09:06:39.799Z,97803.84
2022-11-04T09:09:11.510Z,97809.56
2022-11-04T09:11:42.245Z,97809.06
2022-11-04T09:14:10.520Z,97810.47
2022-11-04T09:16:39.197Z,97831.19
2022-11-04T09:19:06.094Z,97830.34
2022-11-04T09:21:32.993Z,97840.91
2022-11-04T09:23:59.843Z,97842.16
2022-11-04T09:26:26.979Z,97841.31
2022-11-04T09:28:58.984Z,97848.34
2022-11-04T09:31:29.628Z,97857.59
2022-11-04T09:33:57.392Z,97858.56
2022-11-04T09:36:24.998Z,97864.13
2022-11-04T09:38:51.927Z,97863.38
2022-11-04T09:41:50.537Z,97857.75
2022-11-04T09:45:19.417Z,97862.63
2022-11-04T09:47:40.710Z,97866.25
2022-11-04T09:50:15.605Z,97867.16
2022-11-04T09:52:50.610Z,97862.53
2022-11-04T09:55:29.212Z,97864.78
2022-11-04T09:58:01.694Z,97863.72
2022-11-04T10:00:37.345Z,97859.22
2022-11-04T10:03:22.080Z,97853.13
2022-11-04T10:06:28.586Z,97846.38
2022-11-04T10:09:14.479Z,97844.88
2022-11-04T10:11:50.120Z,97846.28
2022-11-04T10:14:47.124Z,97840.16
2022-11-04T10:17:41.479Z,97839.75
2022-11-04T10:20:38.561Z,97831.50
2022-11-04T10:23:38.264Z,97834.97
2022-11-04T10:26:05.053Z,97832.16
2022-11-04T10:28:41.446Z,97834.06
2022-11-04T10:31:15.758Z,97830.44
2022-11-04T10:33:54.044Z,97825.81
2022-11-04T10:36:22.611Z,97825.91
2022-11-04T10:38:56.325Z,97819.91
2022-11-04T10:41:40.476Z,97819.00
2022-11-04T10:44:22.613Z,97815.59
2022-11-04T10:47:17.194Z,97820.72
2022-11-04T10:50:27.202Z,97823.53
2022-11-04T10:52:48.008Z,97822.50
2022-11-04T10:56:18.681Z,97820.69
2022-11-04T10:58:48.343Z,97820.25
2022-11-04T11:01:30.760Z,97819.44
2022-11-04T11:03:59.263Z,97817.94
2022-11-04T11:06:34.291Z,97823.38
2022-11-04T11:09:29.369Z,97816.47
2022-11-04T11:12:01.145Z,97817.94
2022-11-04T11:14:27.999Z,97823.69
2022-11-04T11:16:57.019Z,97810.69
2022-11-04T11:19:25.978Z,97810.81
2022-11-04T11:21:56.828Z,97806.38
2022-11-04T11:24:30.675Z,97808.44
2022-11-04T11:27:02.451Z,97799.94
2022-11-04T11:29:40.312Z,97798.91
2022-11-04T11:32:34.761Z,97802.91
2022-11-04T11:35:07.715Z,97799.81
2022-11-04T11:37:36.232Z,97794.38
2022-11-04T11:40:04.147Z,97794.72
2022-11-04T11:42:30.942Z,97792.34
2022-11-04T11:44:59.986Z,97791.09
2022-11-04T11:47:29.702Z,97782.94
2022-11-04T11:50:15.958Z,97785.19
2022-11-04T11:52:45.209Z,97779.16
2022-11-04T11:55:37.122Z,97775.69
2022-11-04T12:01:43.289Z,97778.88
2022-11-04T12:11:06.042Z,97777.44
2022-11-04T12:13:50.460Z,97771.66
2022-11-04T12:16:44.035Z,97772.81
2022-11-04T12:19:29.469Z,97780.53
2022-11-04T12:22:12.199Z,97776.91
2022-11-04T12:25:05.083Z,97768.63
2022-11-04T12:27:47.387Z,97777.69
2022-11-04T12:30:26.091Z,97780.00
2022-11-04T12:33:10.182Z,97779.09
2022-11-04T12:36:16.591Z,97780.00
2022-11-04T12:39:15.896Z,97781.63
2022-11-04T12:45:17.916Z,97784.25
2022-11-04T12:47:47.560Z,97791.31
2022-11-04T12:51:07.606Z,97775.13
2022-11-04T12:53:58.562Z,97783.63
2022-11-04T12:56:41.520Z,97787.22
2022-11-04T12:59:17.082Z,97790.38
2022-11-04T13:02:30.899Z,97793.56
2022-11-04T13:05:21.688Z,97806.41
2022-11-04T13:08:16.729Z,97805.28
2022-11-04T13:11:05.997Z,97824.56
2022-11-04T13:13:39.646Z,97817.06
2022-11-04T13:16:12.174Z,97817.19
2022-11-04T13:18:41.259Z,97820.25
2022-11-04T13:21:19.467Z,97819.69
2022-11-04T13:24:32.065Z,97819.91
2022-11-04T13:27:05.964Z,97830.09
2022-11-04T13:29:34.672Z,97834.06
2022-11-04T13:32:32.051Z,97836.31
2022-11-04T13:35:38.240Z,97829.03
2022-11-04T13:38:13.085Z,97838.09
2022-11-04T13:40:45.736Z,97846.09
2022-11-04T13:43:38.083Z,97846.84
2022-11-04T13:46:28.337Z,97841.16
2022-11-04T13:49:06.860Z,97857.34
2022-11-04T13:51:42.429Z,97857.63
2022-11-04T13:54:27.199Z,97868.03
2022-11-04T13:57:20.604Z,97871.13
2022-11-04T14:00:06.657Z,97874.66
2022-11-04T14:02:42.295Z,97875.06
2022-11-04T14:05:27.215Z,97870.47
2022-11-04T14:08:06.869Z,97876.47
2022-11-04T14:10:49.151Z,97882.28
2022-11-04T14:13:28.319Z,97882.66
2022-11-04T14:16:01.496Z,97884.47
2022-11-04T14:18:33.987Z,97892.13
2022-11-04T14:21:50.006Z,97890.53
2022-11-04T14:24:19.479Z,97891.47
2022-11-04T14:26:48.592Z,97886.38
2022-11-04T14:29:25.179Z,97892.00
2022-11-04T14:32:01.515Z,97885.81
2022-11-04T14:34:42.883Z,97898.72
2022-11-04T14:37:29.704Z,97896.31
2022-11-04T14:40:00.720Z,97897.13
2022-11-04T14:42:55.764Z,97895.38
2022-11-04T14:45:38.599Z,97901.91
2022-11-04T14:48:18.320Z,97900.31
2022-11-04T14:50:51.788Z,97909.09
2022-11-04T14:53:37.786Z,97912.63
2022-11-04T14:56:07.131Z,97907.22
2022-11-04T14:58:35.971Z,97911.84
2022-11-04T15:01:04.306Z,97912.94
2022-11-04T15:06:53.705Z,97919.84
2022-11-04T15:09:49.916Z,97918.84
2022-11-04T15:12:38.601Z,97919.00
2022-11-04T15:15:48.577Z,97918.84
2022-11-04T15:18:28.055Z,97924.78
2022-11-04T15:20:59.502Z,97920.31
2022-11-04T15:23:35.392Z,97920.81
2022-11-04T15:26:04.232Z,97924.66
2022-11-04T15:28:41.317Z,97926.25
2022-11-04T15:31:16.996Z,97925.94
2022-11-04T15:33:49.305Z,97930.41
2022-11-04T15:36:24.305Z,97939.66
2022-11-04T15:39:07.791Z,97941.09
2022-11-04T15:41:57.319Z,97949.84
2022-11-04T15:44:29.038Z,97958.00
2022-11-04T15:47:20.133Z,97959.28
2022-11-04T15:49:52.919Z,97959.44
2022-11-04T15:52:25.492Z,97957.19
2022-11-04T15:54:57.814Z,97965.97
2022-11-04T15:57:33.253Z,97962.78
2022-11-04T16:00:22.137Z,97963.59
2022-11-04T16:02:57.240Z,97971.88
2022-11-04T16:05:29.945Z,97976.81
2022-11-04T16:08:20.022Z,97979.84
2022-11-04T16:10:49.179Z,97980.16
2022-11-04T16:13:16.080Z,97988.44
2022-11-04T16:15:49.983Z,97987.84
2022-11-04T16:18:39.480Z,97993.41
2022-11-04T16:21:20.797Z,97991.47
2022-11-04T16:24:05.722Z,97988.44
2022-11-04T16:26:44.419Z,98006.78
2022-11-04T16:29:27.786Z,98003.47
2022-11-04T16:32:14.148Z,98002.50
2022-11-04T16:34:40.959Z,97993.25
2022-11-04T16:37:07.852Z,98002.34
2022-11-04T16:39:34.584Z,97998.50
2022-11-04T16:42:01.484Z,98009.53
2022-11-04T16:44:28.739Z,98006.00
2022-11-04T16:46:57.090Z,98010.47
2022-11-04T16:49:24.854Z,98018.75
2022-11-04T16:52:01.626Z,98028.00
2022-11-04T16:54:29.098Z,98031.31
2022-11-04T16:56:56.825Z,98035.44
2022-11-04T16:59:23.680Z,98034.34
2022-11-04T17:01:50.513Z,98039.75
2022-11-04T17:04:17.489Z,98044.06
2022-11-04T17:06:46.120Z,98047.25
2022-11-04T17:09:23.647Z,98046.66
2022-11-04T17:11:50.389Z,98049.66
2022-11-04T17:14:17.191Z,98044.06
2022-11-04T17:16:44.547Z,98058.59
2022-11-04T17:19:16.414Z,98068.47
2022-11-04T17:21:45.232Z,98072.78
2022-11-04T17:24:12.559Z,98075.78
2022-11-04T17:26:39.615Z,98072.56
2022-11-04T17:29:06.567Z,98074.97
2022-11-04T17:31:33.451Z,98085.16
2022-11-04T17:34:00.614Z,98078.78
2022-11-04T17:36:27.777Z,98082.47
2022-11-04T17:38:54.659Z,98089.47
2022-11-04T17:41:40.656Z,98098.72
2022-11-04T17:44:07.667Z,98094.13
2022-11-04T17:46:35.815Z,98093.00
2022-11-04T17:49:07.843Z,98094.44
2022-11-04T17:51:36.352Z,98103.50
2022-11-04T17:54:04.772Z,98102.06
2022-11-04T17:56:32.473Z,98103.66
2022-11-04T17:59:04.073Z,98100.94
2022-11-04T18:01:34.626Z,98112.28
2022-11-04T18:04:03.138Z,98113.56
2022-11-04T18:06:32.817Z,98122.19
2022-11-04T18:09:01.462Z,98123.44
2022-11-04T18:11:48.381Z,98131.72
2022-11-04T18:14:17.669Z,98128.66
2022-11-04T18:16:48.802Z,98132.19
2022-11-04T18:19:18.894Z,98132.97
2022-11-04T18:21:46.591Z,98141.38
2022-11-04T18:24:13.943Z,98144.72
2022-11-04T18:26:42.603Z,98150.91
2022-11-04T18:29:10.821Z,98144.94
2022-11-04T18:31:44.630Z,98160.19
2022-11-04T18:34:18.784Z,98160.53
2022-11-04T18:36:47.819Z,98158.59
2022-11-04T18:39:17.336Z,98160.53
2022-11-04T18:41:45.514Z,98165.31
2022-11-04T18:44:21.077Z,98156.25
2022-11-04T18:46:49.245Z,98169.84
2022-11-04T18:49:17.990Z,98166.03
2022-11-04T18:51:46.517Z,98167.16
2022-11-04T18:54:14.719Z,98174.66
2022-11-04T18:56:42.495Z,98177.84
2022-11-04T18:59:12.721Z,98170.34
2022-11-04T19:01:40.614Z,98174.03
2022-11-04T19:04:08.850Z,98178.19
2022-11-04T19:06:41.884Z,98180.06
2022-11-04T19:09:44.807Z,98181.31
2022-11-04T19:12:18.925Z,98185.63
2022-11-04T19:14:45.777Z,98195.72
2022-11-04T19:17:12.600Z,98198.13
2022-11-04T19:19:41.001Z,98202.25
2022-11-04T19:22:09.075Z,98207.66
2022-11-04T19:24:36.126Z,98212.28
2022-11-04T19:27:04.790Z,98220.72
2022-11-04T19:29:32.946Z,98213.63
2022-11-04T19:32:00.534Z,98219.53
2022-11-04T19:34:27.322Z,98215.06
2022-11-04T19:36:54.214Z,98220.09
2022-11-04T19:39:21.061Z,98222.31
2022-11-04T19:42:06.410Z,98222.81
2022-11-04T19:44:33.263Z,98234.63
2022-11-04T19:47:00.029Z,98238.31
2022-11-04T19:49:31.243Z,98236.72
2022-11-04T19:51:59.460Z,98235.00
2022-11-04T19:54:28.195Z,98241.53
2022-11-04T19:56:55.622Z,98236.41
2022-11-04T19:59:22.573Z,98254.25
2022-11-04T20:01:50.610Z,98259.38
2022-11-04T20:04:18.377Z,98256.66
2022-11-04T20:06:45.110Z,98264.19
2022-11-04T20:09:12.759Z,98259.50
2022-11-04T20:11:59.917Z,98264.91
2022-11-04T20:14:28.849Z,98270.34
2022-11-04T20:16:55.846Z,98273.94
2022-11-04T20:19:23.549Z,98279.56
2022-11-04T20:21:51.132Z,98284.06
2022-11-04T20:24:17.950Z,98289.19
2022-11-04T20:26:46.895Z,98288.19
2022-11-04T20:29:15.977Z,98299.03
2022-11-04T20:31:44.445Z,98303.84
2022-11-04T20:34:13.279Z,98307.16
2022-11-04T20:36:41.000Z,98311.88
2022-11-04T20:39:13.237Z,98312.97
2022-11-04T20:41:40.160Z,98313.69
2022-11-04T20:44:07.488Z,98320.56
2022-11-04T20:46:34.843Z,98320.88
2022-11-04T20:49:03.996Z,98328.22
2022-11-04T20:51:34.765Z,98324.06
2022-11-04T20:54:05.539Z,98330.81
2022-11-04T20:56:35.994Z,98328.59
2022-11-04T20:59:04.677Z,98338.53
2022-11-04T21:01:35.028Z,98338.81
2022-11-04T21:04:11.837Z,98337.22
2022-11-04T21:06:39.499Z,98335.13
2022-11-04T21:09:09.160Z,98346.44
2022-11-04T21:11:36.026Z,98344.72
2022-11-04T21:14:03.611Z,98351.25
2022-11-04T21:16:30.455Z,98354.56
2022-11-04T21:18:57.808Z,98355.47
2022-11-04T21:21:28.184Z,98368.13
2022-11-04T21:24:04.716Z,98356.16
2022-11-04T21:26:34.416Z,98366.28
2022-11-04T21:29:06.272Z,98365.06
2022-11-04T21:31:35.202Z,98361.72
2022-11-04T21:34:03.620Z,98367.63
2022-11-04T21:36:31.391Z,98371.94
2022-11-04T21:38:59.024Z,98379.78
2022-11-04T21:41:29.646Z,98378.38
2022-11-04T21:44:02.215Z,98378.38
2022-11-04T21:46:33.222Z,98385.38
2022-11-04T21:49:00.894Z,98376.25
2022-11-04T21:51:31.139Z,98385.63
2022-11-04T21:53:59.934Z,98384.13
2022-11-04T21:56:33.952Z,98391.50
2022-11-04T21:59:01.884Z,98402.34
2022-11-04T22:01:30.686Z,98397.72
2022-11-04T22:04:01.076Z,98401.72
2022-11-04T22:06:34.614Z,98397.50
2022-11-04T22:09:05.697Z,98392.22
2022-11-04T22:11:37.167Z,98394.00
2022-11-04T22:14:08.281Z,98399.75
2022-11-04T22:16:38.522Z,98393.94
2022-11-04T22:19:10.357Z,98394.34
2022-11-04T22:21:40.975Z,98402.78
2022-11-04T22:24:17.833Z,98403.78
2022-11-04T22:26:44.692Z,98401.75
2022-11-04T22:29:11.471Z,98399.25
2022-11-04T22:31:42.614Z,98407.88
2022-11-04T22:34:09.818Z,98408.97
2022-11-04T22:36:36.725Z,98410.59
2022-11-04T22:39:03.707Z,98412.91
2022-11-04T22:41:32.638Z,98411.59
2022-11-04T22:43:59.460Z,98412.69
2022-11-04T22:46:30.791Z,98416.50
2022-11-04T22:48:59.504Z,98413.00
2022-11-04T22:51:26.712Z,98415.72
2022-11-04T22:53:58.845Z,98424.34
2022-11-04T22:56:25.901Z,98422.13
2022-11-04T22:58:53.994Z,98429.03
2022-11-04T23:01:21.619Z,98428.63
2022-11-04T23:03:51.823Z,98428.22
2022-11-04T23:06:19.577Z,98440.16
2022-11-04T23:08:46.419Z,98436.97
2022-11-04T23:11:41.788Z,98435.84
2022-11-04T23:14:33.681Z,98433.63
2022-11-04T23:17:19.284Z,98443.06
2022-11-04T23:19:46.336Z,98437.94
2022-11-04T23:22:31.713Z,98446.28
2022-11-04T23:25:09.305Z,98442.66
2022-11-04T23:28:03.832Z,98438.53
2022-11-04T23:30:36.149Z,98439.75
2022-11-04T23:33:11.239Z,98449.91
2022-11-04T23:35:59.737Z,98446.28
2022-11-04T23:38:29.358Z,98446.56
2022-11-04T23:41:22.215Z,98450.59
2022-11-04T23:43:52.038Z,98453.22
2022-11-04T23:46:42.719Z,98456.53
2022-11-04T23:49:48.796Z,98450.09
2022-11-04T23:52:34.187Z,98456.31
2022-11-04T23:55:19.328Z,98460.34
2022-11-04T23:58:04.559Z,98465.25
